Time;durP1;ratioP1;P1;durP2;ratioP2;P2;SDS_P1;SDS_P2;PMS_P1;PMS_P2;Temp;Humidity;BMP_temperature;BMP_pressure;BME280_temperature;BME280_humidity;BME280_pressure;Samples;Min_cycle;Max_cycle;Signal;HPM_P1;HPM_P2
2023/09/13 00:00:13;;;;;;;10.00;8.48;;;18.40;99.90;;;;;;5145201;28;20034;-65
2023/09/13 00:02:45;;;;;;;11.23;8.38;;;18.40;99.90;;;;;;5132536;28;20049;-65
2023/09/13 00:05:16;;;;;;;10.95;7.78;;;18.40;99.90;;;;;;5141618;28;20038;-64
2023/09/13 00:07:49;;;;;;;10.73;8.63;;;18.40;99.90;;;;;;5147174;28;20052;-63
2023/09/13 00:10:21;;;;;;;8.85;7.95;;;18.40;99.90;;;;;;5163822;28;20033;-64
2023/09/13 00:12:52;;;;;;;9.70;7.90;;;18.40;99.90;;;;;;5147924;28;20034;-64
2023/09/13 00:15:23;;;;;;;14.38;9.70;;;18.40;99.90;;;;;;5160823;28;20017;-65
2023/09/13 00:17:56;;;;;;;11.18;7.82;;;18.40;99.90;;;;;;5155880;28;20132;-64
2023/09/13 00:20:27;;;;;;;9.88;7.90;;;18.30;99.90;;;;;;5156995;28;20041;-64
2023/09/13 00:23:00;;;;;;;9.30;7.38;;;18.30;99.90;;;;;;5159324;28;20022;-63
2023/09/13 00:25:34;;;;;;;9.55;7.68;;;18.20;99.90;;;;;;5145844;28;20274;-64
2023/09/13 00:28:05;;;;;;;8.90;8.00;;;18.20;99.90;;;;;;5145782;28;20032;-64
2023/09/13 00:30:40;;;;;;;10.13;8.27;;;18.20;99.90;;;;;;5128931;28;20477;-65
2023/09/13 00:33:12;;;;;;;10.27;8.27;;;18.20;99.90;;;;;;5150455;28;20465;-64
2023/09/13 00:35:43;;;;;;;11.23;8.75;;;18.20;99.90;;;;;;5129447;28;20435;-65
2023/09/13 00:38:14;;;;;;;11.15;8.88;;;18.30;99.90;;;;;;5149562;28;20741;-63
2023/09/13 00:40:47;;;;;;;11.30;9.05;;;18.30;99.90;;;;;;5130638;28;20040;-65
2023/09/13 00:43:19;;;;;;;11.60;9.45;;;18.30;99.90;;;;;;5149053;28;20032;-65
2023/09/13 00:45:55;;;;;;;10.10;8.93;;;18.30;99.90;;;;;;5161387;28;20026;-64
2023/09/13 00:48:28;;;;;;;11.43;9.13;;;18.30;99.90;;;;;;5164366;28;20026;-63
2023/09/13 00:51:00;;;;;;;11.32;9.38;;;18.30;99.90;;;;;;5162765;28;20034;-63
2023/09/13 00:53:34;;;;;;;10.88;9.07;;;18.20;99.90;;;;;;5164930;28;20038;-63
2023/09/13 00:56:06;;;;;;;;;;;18.20;99.90;;;;;;5157659;28;20034;-63
2023/09/13 00:58:40;;;;;;;12.80;8.68;;;18.20;99.90;;;;;;5161724;28;19921;-63
2023/09/13 01:01:15;;;;;;;11.27;9.00;;;18.10;99.90;;;;;;5157087;23;20045;-92
2023/09/13 01:03:46;;;;;;;10.60;8.65;;;18.10;99.90;;;;;;5181677;28;20021;-93
2023/09/13 01:06:19;;;;;;;13.07;8.88;;;18.10;99.90;;;;;;5180948;28;20041;-93
2023/09/13 01:08:50;;;;;;;10.45;8.88;;;18.10;99.90;;;;;;5184208;28;20036;-93
2023/09/13 01:11:23;;;;;;;12.07;8.80;;;18.00;99.90;;;;;;5189597;28;20034;-92
2023/09/13 01:13:54;;;;;;;11.63;9.23;;;18.00;99.90;;;;;;5178750;28;20025;-92
2023/09/13 01:16:48;;;;;;;12.07;9.13;;;18.00;99.90;;;;;;5191635;28;20043;-92
2023/09/13 01:19:41;;;;;;;13.27;10.30;;;17.90;99.90;;;;;;5192529;28;20029;-91
2023/09/13 01:22:40;;;;;;;10.20;8.90;;;18.00;99.90;;;;;;5177301;28;20263;-93
2023/09/13 01:25:54;;;;;;;11.15;8.85;;;18.00;99.90;;;;;;5172126;28;20022;-92
2023/09/13 01:28:46;;;;;;;10.38;8.98;;;17.90;99.90;;;;;;5132673;28;20032;-91
2023/09/13 01:31:21;;;;;;;11.90;9.23;;;17.90;99.90;;;;;;5184820;28;20063;-91
2023/09/13 01:33:54;;;;;;;12.23;9.93;;;17.80;99.90;;;;;;5189924;28;20033;-91
2023/09/13 01:36:26;;;;;;;12.23;9.23;;;17.90;99.90;;;;;;5191858;28;20022;-91
2023/09/13 01:38:57;;;;;;;12.73;9.18;;;17.80;99.90;;;;;;5195562;28;20119;-89
2023/09/13 01:41:55;;;;;;;13.20;8.57;;;17.80;99.90;;;;;;5179046;28;20137;-91
2023/09/13 01:44:29;;;;;;;15.00;8.95;;;17.80;99.90;;;;;;5187521;28;20036;-91
2023/09/13 01:47:04;;;;;;;12.00;9.50;;;17.70;99.90;;;;;;5175754;28;20217;-91
2023/09/13 01:49:39;;;;;;;10.40;8.77;;;17.60;99.90;;;;;;5195735;28;20029;-89
2023/09/13 01:52:11;;;;;;;10.45;8.77;;;17.50;99.90;;;;;;5193574;28;20056;-90
2023/09/13 01:54:42;;;;;;;10.93;9.20;;;17.40;99.90;;;;;;5190969;28;20021;-90
2023/09/13 01:57:16;;;;;;;11.93;9.38;;;17.40;99.90;;;;;;5189710;28;20034;-93
2023/09/13 01:59:50;;;;;;;16.58;9.48;;;17.40;99.90;;;;;;5187884;28;20018;-91
2023/09/13 02:02:23;;;;;;;13.52;9.05;;;17.40;99.90;;;;;;5189247;28;20025;-90
2023/09/13 02:04:57;;;;;;;11.05;9.18;;;17.40;99.90;;;;;;5193268;28;20059;-91
2023/09/13 02:07:28;;;;;;;11.13;9.23;;;17.40;99.90;;;;;;5179776;28;20033;-92
2023/09/13 02:10:02;;;;;;;14.43;9.60;;;17.40;99.90;;;;;;5176796;28;20030;-91
2023/09/13 02:12:34;;;;;;;;;;;17.30;99.90;;;;;;5196629;28;20029;-91
2023/09/13 02:15:06;;;;;;;11.23;8.68;;;17.30;99.90;;;;;;5172435;28;19905;-92
2023/09/13 02:17:37;;;;;;;13.02;9.55;;;17.20;99.90;;;;;;5180360;28;20031;-90
2023/09/13 02:20:11;;;;;;;11.52;10.02;;;17.10;99.90;;;;;;5199911;28;20030;-92
2023/09/13 02:22:52;;;;;;;11.95;9.90;;;17.20;99.90;;;;;;5196999;28;20048;-90
2023/09/13 02:25:23;;;;;;;13.57;10.45;;;17.20;99.90;;;;;;5190170;28;20218;-91
2023/09/13 02:27:55;;;;;;;11.73;10.00;;;17.20;99.90;;;;;;5189488;28;20056;-91
2023/09/13 02:30:26;;;;;;;13.18;10.65;;;17.10;99.90;;;;;;5204619;28;20020;-91
2023/09/13 02:32:59;;;;;;;15.57;10.77;;;17.10;99.90;;;;;;5204143;28;20039;-93
2023/09/13 02:35:32;;;;;;;12.10;9.27;;;17.20;99.90;;;;;;5183571;28;20029;-90
2023/09/13 02:38:04;;;;;;;12.52;8.98;;;17.20;99.90;;;;;;5198656;28;20303;-91
2023/09/13 02:40:38;;;;;;;11.88;9.85;;;17.20;99.90;;;;;;5194742;28;20034;-91
2023/09/13 02:43:10;;;;;;;13.90;10.30;;;17.20;99.90;;;;;;5196986;28;20047;-92
2023/09/13 02:45:44;;;;;;;10.93;9.38;;;17.10;99.90;;;;;;5174134;28;20029;-91
2023/09/13 02:48:21;;;;;;;12.20;10.20;;;17.10;99.90;;;;;;5188097;28;20339;-92
2023/09/13 02:50:56;;;;;;;13.05;10.52;;;17.10;99.90;;;;;;5172203;28;20372;-91
2023/09/13 02:53:28;;;;;;;12.00;9.85;;;17.00;99.90;;;;;;5173367;28;20423;-92
2023/09/13 02:56:09;;;;;;;14.48;10.02;;;16.90;99.90;;;;;;5171066;28;20030;-94
2023/09/13 02:58:43;;;;;;;12.25;9.52;;;16.90;99.90;;;;;;5169601;28;20021;-92
2023/09/13 03:01:14;;;;;;;18.70;10.48;;;16.90;99.90;;;;;;5185962;28;20036;-91
2023/09/13 03:03:46;;;;;;;14.38;10.82;;;16.80;99.90;;;;;;5188997;28;20021;-92
2023/09/13 03:06:17;;;;;;;13.75;11.40;;;16.80;99.90;;;;;;5195709;28;20029;-91
2023/09/13 03:08:49;;;;;;;16.95;10.88;;;16.80;99.90;;;;;;5184520;28;20035;-91
2023/09/13 03:11:20;;;;;;;15.13;12.00;;;16.60;99.90;;;;;;5185019;28;20025;-91
2023/09/13 03:13:54;;;;;;;13.35;9.70;;;16.70;99.90;;;;;;5179291;28;20042;-92
2023/09/13 03:16:44;;;;;;;14.68;10.43;;;16.60;99.90;;;;;;5192577;28;20120;-92
2023/09/13 03:19:15;;;;;;;15.07;10.20;;;16.60;99.90;;;;;;5196924;28;20033;-90
2023/09/13 03:21:46;;;;;;;12.15;10.52;;;16.70;99.90;;;;;;5195649;28;20026;-92
2023/09/13 03:24:20;;;;;;;12.73;10.23;;;16.70;99.90;;;;;;5187040;28;20347;-92
2023/09/13 03:26:53;;;;;;;12.82;10.13;;;16.60;99.90;;;;;;5188832;28;20037;-90
2023/09/13 03:29:25;;;;;;;11.02;9.32;;;16.50;99.90;;;;;;5183449;28;20040;-91
2023/09/13 03:31:57;;;;;;;10.13;9.00;;;16.50;99.90;;;;;;5176543;28;20033;-91
2023/09/13 03:34:28;;;;;;;15.65;10.20;;;16.50;99.90;;;;;;5184757;28;20041;-93
2023/09/13 03:37:00;;;;;;;14.35;9.75;;;16.40;99.90;;;;;;5192685;28;20026;-90
2023/09/13 03:39:34;;;;;;;11.77;9.48;;;16.50;99.90;;;;;;5190275;28;20081;-92
2023/09/13 03:42:06;;;;;;;12.88;10.07;;;16.50;99.90;;;;;;5179376;28;20542;-92
2023/09/13 03:44:37;;;;;;;12.25;9.55;;;16.50;99.90;;;;;;5173539;28;20033;-91
2023/09/13 03:47:08;;;;;;;12.82;10.52;;;16.50;99.90;;;;;;5183235;28;20032;-91
2023/09/13 03:49:39;;;;;;;13.57;9.63;;;16.60;99.90;;;;;;5186421;28;20064;-89
2023/09/13 03:52:13;;;;;;;13.90;10.23;;;16.50;99.90;;;;;;5193777;28;20039;-92
2023/09/13 03:54:47;;;;;;;15.07;10.15;;;16.50;99.90;;;;;;5181927;28;20036;-93
2023/09/13 03:57:18;;;;;;;12.27;9.98;;;16.50;99.90;;;;;;5189352;28;20022;-92
2023/09/13 03:59:52;;;;;;;11.85;9.80;;;16.50;99.90;;;;;;5196543;28;20039;-91
2023/09/13 04:02:26;;;;;;;16.52;10.52;;;16.40;99.90;;;;;;5186266;28;20033;-92
2023/09/13 04:05:02;;;;;;;14.75;11.05;;;16.50;99.90;;;;;;5191020;28;20037;-92
2023/09/13 04:07:34;;;;;;;12.55;9.90;;;16.40;99.90;;;;;;5178038;28;20044;-91
2023/09/13 04:10:09;;;;;;;15.13;10.23;;;16.40;99.90;;;;;;5191547;28;20061;-91
2023/09/13 04:12:40;;;;;;;16.23;11.57;;;16.50;99.90;;;;;;5183777;28;20038;-92
2023/09/13 04:15:14;;;;;;;13.13;10.15;;;16.50;99.90;;;;;;5175090;28;20496;-92
2023/09/13 04:17:47;;;;;;;13.87;10.53;;;16.40;99.90;;;;;;5177767;28;20021;-91
2023/09/13 04:20:22;;;;;;;14.25;10.40;;;16.40;99.90;;;;;;5189289;28;20271;-92
2023/09/13 04:22:53;;;;;;;;;;;16.40;99.90;;;;;;5187947;28;20044;-92
2023/09/13 04:25:27;;;;;;;13.18;10.63;;;16.40;99.90;;;;;;5187854;28;20603;-91
2023/09/13 04:27:58;;;;;;;13.80;9.85;;;16.50;99.90;;;;;;5172005;28;20052;-92
2023/09/13 04:30:31;;;;;;;17.73;11.45;;;16.40;99.90;;;;;;5169626;28;20644;-92
2023/09/13 04:33:06;;;;;;;14.40;11.02;;;16.50;99.90;;;;;;5182318;28;20063;-93
2023/09/13 04:35:37;;;;;;;13.20;11.48;;;16.60;99.90;;;;;;5176134;28;20022;-92
2023/09/13 04:38:11;;;;;;;17.50;10.43;;;16.50;99.90;;;;;;5185786;28;20031;-92
2023/09/13 04:40:43;;;;;;;16.00;11.13;;;16.50;99.90;;;;;;5170862;28;20043;-92
2023/09/13 04:43:14;;;;;;;16.65;11.95;;;16.50;99.90;;;;;;5178248;28;20022;-91
2023/09/13 04:45:45;;;;;;;15.10;11.45;;;16.60;99.90;;;;;;5178178;28;20037;-91
2023/09/13 04:48:19;;;;;;;17.38;10.82;;;16.70;99.90;;;;;;5169206;28;20025;-93
2023/09/13 04:50:50;;;;;;;14.75;11.23;;;16.80;99.90;;;;;;5174514;28;20042;-90
2023/09/13 04:53:22;;;;;;;16.85;12.07;;;16.90;99.90;;;;;;5186142;28;20040;-93
2023/09/13 04:55:53;;;;;;;15.60;12.27;;;17.00;99.90;;;;;;5198019;28;20032;-94
2023/09/13 04:58:24;;;;;;;14.20;11.60;;;17.10;99.90;;;;;;5183008;28;20219;-92
2023/09/13 05:00:56;;;;;;;15.35;10.73;;;17.30;99.90;;;;;;5180321;28;20025;-93
2023/09/13 05:03:30;;;;;;;12.45;10.20;;;17.50;99.90;;;;;;5191415;28;20064;-93
2023/09/13 05:06:04;;;;;;;13.88;10.95;;;17.70;99.90;;;;;;5180432;28;20033;-91
2023/09/13 05:08:37;;;;;;;14.55;8.93;;;17.90;99.90;;;;;;5180285;28;20026;-92
2023/09/13 05:11:08;;;;;;;11.15;8.48;;;18.00;99.90;;;;;;5198336;28;20033;-92
2023/09/13 05:13:39;;;;;;;11.88;8.65;;;18.10;99.90;;;;;;5197878;28;20044;-93
2023/09/13 05:16:12;;;;;;;11.85;8.55;;;18.30;99.90;;;;;;5178286;28;20036;-91
2023/09/13 05:18:43;;;;;;;9.63;7.88;;;18.30;99.90;;;;;;5178679;28;20036;-96
2023/09/13 05:21:15;;;;;;;9.35;7.45;;;18.50;99.90;;;;;;5178074;28;20022;-91
2023/09/13 05:23:46;;;;;;;12.27;8.65;;;18.60;99.90;;;;;;5183817;28;20369;-93
2023/09/13 05:26:17;;;;;;;8.95;7.22;;;18.70;99.90;;;;;;5182581;28;20033;-92
2023/09/13 05:28:48;;;;;;;9.77;8.10;;;18.80;96.80;;;;;;5184860;28;20029;-91
2023/09/13 05:31:24;;;;;;;10.45;8.15;;;18.90;30.60;;;;;;5185313;28;20033;-91
2023/09/13 05:33:58;;;;;;;8.30;7.13;;;18.90;1.00;;;;;;5201077;28;20037;-92
2023/09/13 05:40:06;;;;;;;9.25;7.35;;;19.10;1.00;;;;;;5202439;28;20311;-92
2023/09/13 05:42:37;;;;;;;9.73;7.70;;;19.20;1.00;;;;;;5202742;28;20029;-92
2023/09/13 05:45:11;;;;;;;10.13;8.10;;;19.30;1.00;;;;;;5187787;28;20039;-90
2023/09/13 05:47:42;;;;;;;8.98;7.55;;;19.40;1.00;;;;;;5210919;28;20044;-90
2023/09/13 05:50:14;;;;;;;10.73;7.63;;;19.50;1.00;;;;;;5199997;28;20026;-92
2023/09/13 05:52:45;;;;;;;9.98;8.05;;;19.60;1.00;;;;;;5200043;28;20034;-93
2023/09/13 05:55:19;;;;;;;9.65;7.30;;;19.70;1.00;;;;;;5207794;28;20041;-93
2023/09/13 05:57:51;;;;;;;10.75;7.35;;;19.90;1.00;;;;;;5181728;28;20349;-92
2023/09/13 06:00:22;;;;;;;9.55;7.18;;;20.10;1.00;;;;;;5180473;28;20059;-93
2023/09/13 06:02:54;;;;;;;12.38;6.85;;;20.30;1.00;;;;;;5180789;28;20373;-92
2023/09/13 06:05:25;;;;;;;13.30;7.53;;;20.50;1.00;;;;;;5197721;28;20025;-92
2023/09/13 06:07:56;;;;;;;10.27;7.07;;;20.60;1.00;;;;;;5197632;28;20222;-92
2023/09/13 06:10:27;;;;;;;9.23;6.82;;;20.90;1.00;;;;;;5207893;28;20034;-92
2023/09/13 06:12:58;;;;;;;12.57;7.15;;;21.20;99.90;;;;;;5177545;28;20037;-92
2023/09/13 06:15:30;;;;;;;9.77;6.38;;;21.40;99.90;;;;;;5166063;28;20030;-92
2023/09/13 06:18:03;;;;;;;12.52;7.28;;;21.60;99.90;;;;;;5181507;28;20029;-92
2023/09/13 06:20:44;;;;;;;9.38;7.70;;;21.60;58.80;;;;;;5197409;28;20025;-93
2023/09/13 06:23:41;;;;;;;9.88;7.15;;;21.60;15.80;;;;;;5181842;28;20030;-93
2023/09/13 06:26:12;;;;;;;8.25;7.10;;;21.50;1.00;;;;;;5183676;28;20029;-93
2023/09/13 06:28:44;;;;;;;7.65;6.43;;;21.70;72.30;;;;;;5198664;28;20025;-94
2023/09/13 06:31:15;;;;;;;9.38;6.40;;;21.60;1.00;;;;;;5184540;28;20033;-92
2023/09/13 06:33:46;;;;;;;8.45;6.70;;;21.50;1.00;;;;;;5200097;28;20033;-92
2023/09/13 06:36:18;;;;;;;8.82;6.50;;;21.60;1.00;;;;;;5197243;28;20037;-92
2023/09/13 06:38:50;;;;;;;9.48;7.38;;;21.70;1.00;;;;;;5186352;28;20045;-92
2023/09/13 06:41:21;;;;;;;7.90;6.15;;;21.80;1.00;;;;;;5192248;28;20029;-93
2023/09/13 06:43:53;;;;;;;7.90;5.75;;;22.00;1.00;;;;;;5176911;28;20033;-92
2023/09/13 06:46:24;;;;;;;8.88;7.18;;;22.30;1.00;;;;;;5181061;28;20030;-93
2023/09/13 06:48:56;;;;;;;7.40;6.47;;;22.80;99.90;;;;;;5173197;28;20038;-92
2023/09/13 06:51:27;;;;;;;9.20;7.05;;;23.30;99.90;;;;;;5184813;28;20036;-93
2023/09/13 06:53:59;;;;;;;8.40;6.47;;;23.60;99.90;;;;;;5173185;28;20029;-91
2023/09/13 06:56:31;;;;;;;11.38;6.75;;;23.90;99.90;;;;;;5194448;28;20032;-93
2023/09/13 06:59:03;;;;;;;8.40;6.45;;;24.50;1.00;;;;;;5173985;28;20044;-94
2023/09/13 07:01:34;;;;;;;8.85;6.78;;;24.70;99.90;;;;;;5184075;28;20037;-93
2023/09/13 07:04:05;;;;;;;9.43;7.47;;;25.10;99.90;;;;;;5187630;28;20035;-93
2023/09/13 07:06:36;;;;;;;8.65;6.88;;;25.80;99.90;;;;;;5186828;28;20025;-93
2023/09/13 07:09:08;;;;;;;8.30;6.50;;;26.20;99.90;;;;;;5191563;28;20385;-92
2023/09/13 07:11:39;;;;;;;11.00;7.25;;;26.60;99.90;;;;;;5181488;28;20331;-93
2023/09/13 07:14:10;;;;;;;8.43;6.43;;;26.90;99.90;;;;;;5183371;28;20038;-93
2023/09/13 07:16:42;;;;;;;11.05;7.13;;;27.10;99.90;;;;;;5184954;28;20032;-93
2023/09/13 07:19:18;;;;;;;8.75;5.93;;;27.10;99.90;;;;;;5184340;28;20033;-93
2023/09/13 07:21:49;;;;;;;8.77;6.85;;;26.80;99.90;;;;;;5182885;28;20052;-94
2023/09/13 07:24:26;;;;;;;7.30;6.28;;;27.00;1.00;;;;;;5182581;28;20025;-96
2023/09/13 07:26:57;;;;;;;9.10;6.43;;;27.30;99.90;;;;;;5199578;28;20029;-92
2023/09/13 07:29:28;;;;;;;8.57;5.88;;;27.40;99.90;;;;;;5197452;28;20331;-93
2023/09/13 07:32:02;;;;;;;8.73;5.75;;;27.60;1.00;;;;;;5202135;28;20043;-92
2023/09/13 07:34:34;;;;;;;15.30;6.88;;;27.50;1.00;;;;;;5186201;28;20033;-92
2023/09/13 07:37:08;;;;;;;8.18;6.47;;;27.60;1.00;;;;;;5191795;28;20025;-92
2023/09/13 07:39:41;;;;;;;;;;;27.80;1.00;;;;;;5187961;28;20030;-93
2023/09/13 07:42:14;;;;;;;9.60;6.63;;;27.70;1.00;;;;;;5184979;28;20090;-94
2023/09/13 07:44:46;;;;;;;9.90;6.43;;;27.80;1.00;;;;;;5184232;28;20034;-93
2023/09/13 07:47:17;;;;;;;10.23;6.35;;;27.90;1.00;;;;;;5188736;28;20277;-96
2023/09/13 07:49:54;;;;;;;9.10;6.15;;;27.50;1.00;;;;;;5190978;28;20036;-96
2023/09/13 07:52:27;;;;;;;8.02;6.30;;;27.80;1.00;;;;;;5206499;28;20032;-95
2023/09/13 07:55:06;;;;;;;8.80;5.75;;;27.90;1.00;;;;;;5189125;28;20323;-93
2023/09/13 07:57:37;;;;;;;4.97;3.58;;;28.00;1.00;;;;;;5187028;28;20025;-91
2023/09/13 08:00:09;;;;;;;4.68;3.70;;;28.00;38.10;;;;;;5195111;28;20031;-90
2023/09/13 08:02:44;;;;;;;5.22;3.78;;;27.60;1.00;;;;;;5217071;28;20267;-93
2023/09/13 08:05:18;;;;;;;4.40;3.13;;;27.60;1.00;;;;;;5203766;28;20025;-92
2023/09/13 08:07:59;;;;;;;5.60;3.40;;;27.70;1.00;;;;;;5196477;28;20018;-91
2023/09/13 08:10:33;;;;;;;4.18;2.90;;;27.40;1.00;;;;;;5189663;28;20036;-93
2023/09/13 08:13:04;;;;;;;4.13;3.50;;;27.40;99.90;;;;;;5200972;28;20139;-93
2023/09/13 08:15:38;;;;;;;3.25;2.75;;;27.60;99.90;;;;;;5208454;28;20041;-92
2023/09/13 08:18:09;;;;;;;4.30;2.90;;;27.70;99.90;;;;;;5190757;28;20025;-94
2023/09/13 08:20:41;;;;;;;4.65;2.88;;;27.80;99.90;;;;;;5162199;28;20022;-93
2023/09/13 08:23:13;;;;;;;5.13;2.65;;;28.30;76.60;;;;;;5162770;28;20575;-91
2023/09/13 08:25:45;;;;;;;3.47;2.63;;;28.50;99.90;;;;;;5165219;28;20031;-91
2023/09/13 08:28:16;;;;;;;3.53;2.70;;;28.70;87.50;;;;;;5177072;28;20044;-91
2023/09/13 08:30:51;;;;;;;4.60;2.67;;;28.70;1.00;;;;;;5198210;28;20026;-93
2023/09/13 08:33:22;;;;;;;5.72;2.60;;;28.70;1.00;;;;;;5180054;28;20029;-91
2023/09/13 08:35:53;;;;;;;2.78;2.50;;;28.70;1.00;;;;;;5178761;28;20034;-92
2023/09/13 08:38:24;;;;;;;6.00;3.17;;;28.90;1.00;;;;;;5165455;28;20417;-91
2023/09/13 08:40:56;;;;;;;3.40;2.30;;;28.40;1.00;;;;;;5176144;28;20042;-92
2023/09/13 08:43:28;;;;;;;4.50;2.13;;;28.40;1.00;;;;;;5185930;28;20037;-92
2023/09/13 08:46:01;;;;;;;3.35;2.85;;;28.00;1.00;;;;;;5173518;28;20199;-91
2023/09/13 08:48:34;;;;;;;14.93;2.73;;;27.60;1.00;;;;;;5169173;28;20041;-90
2023/09/13 08:51:10;;;;;;;2.50;2.30;;;27.40;1.00;;;;;;5196600;28;20040;-92
2023/09/13 08:53:43;;;;;;;3.10;2.42;;;27.40;1.00;;;;;;5170552;28;20064;-92
2023/09/13 08:56:30;;;;;;;7.57;2.95;;;27.60;1.00;;;;;;5197078;28;20036;-96
2023/09/13 08:59:04;;;;;;;5.80;3.03;;;27.80;1.00;;;;;;5170478;28;20576;-94
2023/09/13 09:01:38;;;;;;;4.32;2.80;;;27.80;1.00;;;;;;5176021;28;20045;-91
2023/09/13 09:04:09;;;;;;;;;;;28.00;1.00;;;;;;5183716;28;20460;-92
2023/09/13 09:06:42;;;;;;;3.33;2.38;;;28.60;1.00;;;;;;5214101;28;19901;-91
2023/09/13 09:09:17;;;;;;;4.20;2.40;;;28.50;1.00;;;;;;5187460;28;20127;-91
2023/09/13 09:11:57;;;;;;;3.42;2.60;;;28.20;1.00;;;;;;5193871;28;20040;-91
2023/09/13 09:14:33;;;;;;;3.47;2.58;;;28.10;1.00;;;;;;5184158;28;20239;-94
2023/09/13 09:17:06;;;;;;;4.00;2.38;;;28.20;1.00;;;;;;5188373;28;20033;-96
2023/09/13 09:19:38;;;;;;;3.63;2.75;;;28.90;1.00;;;;;;5193211;28;20056;-96
2023/09/13 09:22:12;;;;;;;4.80;3.03;;;29.30;1.00;;;;;;5191011;28;20053;-96
2023/09/13 09:32:07;;;;;;;3.35;2.70;;;31.70;1.00;;;;;;5161538;22;20360;-71
2023/09/13 09:34:41;;;;;;;3.25;2.75;;;30.40;1.00;;;;;;5131980;28;20429;-71
2023/09/13 09:37:12;;;;;;;3.20;2.78;;;29.50;1.00;;;;;;5120667;28;20041;-71
2023/09/13 09:39:44;;;;;;;4.93;3.10;;;29.40;1.00;;;;;;5161575;28;20050;-71
2023/09/13 09:42:16;;;;;;;3.70;2.85;;;29.30;1.00;;;;;;5131040;28;20034;-70
2023/09/13 09:44:47;;;;;;;2.58;2.25;;;29.40;1.00;;;;;;5145627;28;20050;-71
2023/09/13 09:47:24;;;;;;;3.28;2.80;;;29.30;1.00;;;;;;5155230;28;20034;-71
2023/09/13 09:50:03;;;;;;;2.35;2.05;;;29.30;1.00;;;;;;5153068;28;20035;-72
2023/09/13 09:52:34;;;;;;;3.30;2.42;;;29.50;1.00;;;;;;5143364;28;20034;-71
2023/09/13 09:55:06;;;;;;;4.68;3.17;;;29.80;1.00;;;;;;5132731;28;20061;-71
2023/09/13 09:57:37;;;;;;;2.70;2.35;;;29.00;1.00;;;;;;5160837;28;20572;-72
2023/09/13 10:00:10;;;;;;;2.85;2.60;;;29.00;1.00;;;;;;5137142;28;20044;-71
2023/09/13 10:02:47;;;;;;;4.93;3.20;;;29.30;1.00;;;;;;5153113;28;20026;-71
2023/09/13 10:05:19;;;;;;;3.00;2.50;;;29.90;1.00;;;;;;5160435;28;20330;-72
2023/09/13 10:07:52;;;;;;;3.92;2.33;;;30.30;1.00;;;;;;5158744;28;20231;-72
2023/09/13 10:10:35;;;;;;;3.78;2.80;;;30.60;1.00;;;;;;5164692;28;20042;-72
2023/09/13 10:13:06;;;;;;;3.33;2.13;;;31.20;1.00;;;;;;5164036;28;20037;-71
2023/09/13 10:15:38;;;;;;;3.15;2.60;;;31.30;1.00;;;;;;5151976;28;20025;-71
2023/09/13 10:18:12;;;;;;;2.95;2.63;;;31.10;1.00;;;;;;5142375;28;20042;-71
2023/09/13 10:20:44;;;;;;;3.45;2.75;;;30.70;1.00;;;;;;5162098;28;20044;-72
2023/09/13 10:23:19;;;;;;;3.70;2.40;;;30.50;1.00;;;;;;5134026;28;20031;-72
2023/09/13 10:25:53;;;;;;;3.53;2.35;;;29.70;1.00;;;;;;5143660;28;20049;-72
2023/09/13 10:28:27;;;;;;;3.10;2.50;;;29.80;1.00;;;;;;5150998;28;20041;-71
2023/09/13 10:31:01;;;;;;;3.42;2.88;;;29.90;1.00;;;;;;5136456;28;20043;-71
2023/09/13 10:33:35;;;;;;;3.90;2.22;;;30.30;1.00;;;;;;5152257;28;20042;-72
2023/09/13 10:36:11;;;;;;;3.63;2.40;;;30.80;1.00;;;;;;5153376;28;20035;-71
2023/09/13 10:38:49;;;;;;;3.33;2.45;;;30.90;1.00;;;;;;5167534;28;20048;-72
2023/09/13 10:41:20;;;;;;;3.10;2.72;;;31.30;1.00;;;;;;5158397;28;20022;-71
2023/09/13 10:43:52;;;;;;;3.13;2.15;;;31.40;1.00;;;;;;5160592;28;20022;-71
2023/09/13 10:46:23;;;;;;;6.35;2.88;;;31.30;1.00;;;;;;5136105;28;20022;-71
2023/09/13 10:48:56;;;;;;;2.92;2.40;;;31.20;99.90;;;;;;5159544;28;20037;-73
2023/09/13 10:51:30;;;;;;;3.92;2.83;;;31.30;1.00;;;;;;5140270;28;20036;-72
2023/09/13 10:54:02;;;;;;;2.88;2.60;;;31.40;1.00;;;;;;5133643;28;20030;-72
2023/09/13 10:56:36;;;;;;;3.22;2.60;;;31.00;1.00;;;;;;5128561;28;20035;-72
2023/09/13 10:59:09;;;;;;;3.08;2.78;;;30.50;1.00;;;;;;5139272;28;20523;-72
2023/09/13 11:01:46;;;;;;;2.43;2.03;;;30.30;1.00;;;;;;5169467;28;20038;-72
2023/09/13 11:04:24;;;;;;;2.67;2.47;;;30.40;99.90;;;;;;5148145;28;20250;-71
2023/09/13 11:06:58;;;;;;;3.03;2.53;;;30.60;99.90;;;;;;5162353;28;20055;-72
2023/09/13 11:09:32;;;;;;;2.85;2.45;;;30.50;99.90;;;;;;5144730;28;20030;-73
2023/09/13 11:12:05;;;;;;;3.75;2.78;;;30.80;99.90;;;;;;5122367;28;20031;-72
2023/09/13 11:14:36;;;;;;;5.00;2.20;;;31.20;99.90;;;;;;5139594;28;20027;-73
2023/09/13 11:17:37;;;;;;;4.07;2.15;;;31.00;99.90;;;;;;5137447;28;20030;-72
2023/09/13 11:20:38;;;;;;;2.38;2.17;;;30.70;99.90;;;;;;5129328;28;20034;-72
2023/09/13 11:23:18;;;;;;;2.40;2.20;;;30.70;99.90;;;;;;5163339;28;20030;-70
2023/09/13 11:26:00;;;;;;;2.25;1.98;;;31.90;99.90;;;;;;5146514;28;20018;-70
2023/09/13 11:28:50;;;;;;;5.30;2.55;;;33.10;99.90;;;;;;5144177;28;20023;-71
2023/09/13 11:31:21;;;;;;;2.53;2.30;;;33.00;93.40;;;;;;5118794;28;20045;-72
2023/09/13 11:33:58;;;;;;;4.00;2.45;;;33.10;1.00;;;;;;5125704;28;20054;-72
2023/09/13 11:36:31;;;;;;;3.38;2.35;;;32.20;1.00;;;;;;5157735;28;20030;-71
2023/09/13 11:39:05;;;;;;;3.93;2.57;;;32.00;1.00;;;;;;5162923;28;20227;-72
2023/09/13 11:41:39;;;;;;;;;;;33.20;21.10;;;;;;5141963;28;20032;-72
2023/09/13 11:44:10;;;;;;;4.10;2.83;;;33.40;28.50;;;;;;5123191;28;20187;-71
2023/09/13 11:46:45;;;;;;;3.55;2.80;;;33.00;1.00;;;;;;5139775;28;20040;-70
2023/09/13 11:49:24;;;;;;;3.03;2.72;;;32.80;1.00;;;;;;5162545;28;20034;-71
2023/09/13 11:51:57;;;;;;;3.10;2.80;;;32.80;1.00;;;;;;5152676;28;20060;-70
2023/09/13 11:54:28;;;;;;;2.45;2.25;;;33.30;4.80;;;;;;5157452;28;20042;-72
2023/09/13 11:57:03;;;;;;;3.25;2.60;;;34.30;1.00;;;;;;5130289;28;20058;-71
2023/09/13 11:59:37;;;;;;;3.15;2.85;;;33.60;1.00;;;;;;5128239;28;20464;-73
2023/09/13 12:02:12;;;;;;;3.30;2.70;;;34.50;1.00;;;;;;5134054;28;20037;-71
2023/09/13 12:04:44;;;;;;;3.78;2.88;;;34.50;1.00;;;;;;5118129;28;20350;-71
2023/09/13 12:07:16;;;;;;;3.47;2.83;;;34.80;1.00;;;;;;5136972;28;20040;-70
2023/09/13 12:09:55;;;;;;;5.10;3.00;;;36.20;99.90;;;;;;5155345;28;20474;-73
2023/09/13 12:12:29;;;;;;;2.95;2.65;;;36.40;99.90;;;;;;5148512;28;20041;-71
2023/09/13 12:15:01;;;;;;;4.03;2.97;;;37.10;99.90;;;;;;5129806;28;20039;-71
2023/09/13 12:17:40;;;;;;;5.32;3.40;;;36.30;99.90;;;;;;5119765;28;20043;-70
2023/09/13 12:20:13;;;;;;;5.78;3.20;;;35.70;99.90;;;;;;5139826;28;20037;-71
2023/09/13 12:22:48;;;;;;;3.97;3.33;;;34.10;99.90;;;;;;5119135;28;20038;-71
2023/09/13 12:25:19;;;;;;;4.07;3.25;;;33.80;99.90;;;;;;5118746;28;20347;-70
2023/09/13 12:27:55;;;;;;;3.33;3.03;;;33.60;99.90;;;;;;5131998;28;20053;-71
2023/09/13 12:30:26;;;;;;;2.97;2.75;;;33.50;99.90;;;;;;5125584;28;20559;-71
2023/09/13 12:32:59;;;;;;;3.83;3.15;;;33.90;99.90;;;;;;5145424;28;20491;-70
2023/09/13 12:35:31;;;;;;;4.10;3.10;;;34.90;99.90;;;;;;5137720;28;20545;-71
2023/09/13 12:38:02;;;;;;;4.65;3.30;;;35.40;99.90;;;;;;5155277;28;20044;-70
2023/09/13 12:40:33;;;;;;;4.85;3.00;;;34.20;99.90;;;;;;5134340;28;20035;-71
2023/09/13 12:43:07;;;;;;;3.60;3.05;;;34.10;99.90;;;;;;5167658;28;20029;-71
2023/09/13 12:45:40;;;;;;;3.22;2.67;;;34.10;99.90;;;;;;5128979;28;20236;-71
2023/09/13 12:48:12;;;;;;;4.47;3.03;;;34.30;99.90;;;;;;5145531;28;20034;-72
2023/09/13 12:50:44;;;;;;;3.22;2.78;;;33.90;99.90;;;;;;5120916;28;20397;-71
2023/09/13 12:53:18;;;;;;;4.60;2.90;;;33.40;99.90;;;;;;5160936;28;20027;-70
2023/09/13 12:55:51;;;;;;;;;;;33.70;99.90;;;;;;5132013;28;20055;-71
2023/09/13 12:58:22;;;;;;;3.53;3.10;;;33.90;99.90;;;;;;5136924;28;19909;-71
2023/09/13 13:01:07;;;;;;;4.13;2.83;;;34.70;99.90;;;;;;5124806;28;20057;-73
2023/09/13 13:03:55;;;;;;;4.10;2.83;;;34.80;99.90;;;;;;5160278;28;20041;-70
2023/09/13 13:06:36;;;;;;;4.13;3.28;;;36.20;99.90;;;;;;5133938;28;20681;-71
2023/09/13 13:09:09;;;;;;;4.57;3.58;;;36.30;99.90;;;;;;5182162;28;20033;-73
2023/09/13 13:11:40;;;;;;;4.00;3.05;;;35.30;99.90;;;;;;5154263;28;20403;-72
2023/09/13 13:14:12;;;;;;;4.88;3.03;;;35.40;99.90;;;;;;5181250;28;20249;-72
2023/09/13 13:16:50;;;;;;;4.10;3.35;;;36.00;99.90;;;;;;5150173;28;20083;-74
2023/09/13 13:19:31;;;;;;;4.85;3.40;;;36.20;99.90;;;;;;5155416;28;20048;-73
2023/09/13 13:22:05;;;;;;;3.97;2.95;;;36.00;99.90;;;;;;5134646;28;20678;-73
2023/09/13 13:24:36;;;;;;;4.57;3.40;;;36.20;99.90;;;;;;5153113;28;20014;-72
2023/09/13 13:27:07;;;;;;;3.88;3.42;;;36.80;99.90;;;;;;5129654;28;20252;-72
2023/09/13 13:29:39;;;;;;;5.57;3.63;;;35.90;99.90;;;;;;5149204;28;20156;-72